Time;durP1;ratioP1;P1;durP2;ratioP2;P2;SDS_P1;SDS_P2;PMS_P1;PMS_P2;Temp;Humidity;BMP_temperature;BMP_pressure;BME280_temperature;BME280_humidity;BME280_pressure;Samples;Min_cycle;Max_cycle;Signal;HPM_P1;HPM_P2
2023/04/15 00:01:10;;;;;;;49.03;26.37;;;;;;;7.33;100.00;99947.78;4836317;29;20042;-80
2023/04/15 00:03:37;;;;;;;49.60;26.20;;;;;;;7.37;100.00;99938.06;4838007;29;20415;-80
2023/04/15 00:06:04;;;;;;;54.60;26.50;;;;;;;7.36;100.00;99941.59;4837917;29;20049;-80
2023/04/15 00:08:32;;;;;;;55.80;27.57;;;;;;;7.32;100.00;99940.78;4848734;29;20148;-81
2023/04/15 00:11:04;;;;;;;52.13;27.57;;;;;;;7.34;100.00;99939.84;4822084;29;20049;-81
2023/04/15 00:13:32;;;;;;;58.20;26.73;;;;;;;7.33;100.00;99929.38;4836400;29;20600;-80
2023/04/15 00:16:00;;;;;;;55.60;28.93;;;;;;;7.19;100.00;99929.63;4861947;29;20052;-80
2023/04/15 00:18:30;;;;;;;52.17;27.20;;;;;;;7.31;100.00;99926.78;4840353;29;20314;-80
2023/04/15 00:20:58;;;;;;;49.30;27.20;;;;;;;7.29;100.00;99925.91;4854118;29;20042;-80
2023/04/15 00:23:25;;;;;;;50.50;26.90;;;;;;;7.27;100.00;99940.00;4863492;29;20041;-80
2023/04/15 00:25:52;;;;;;;56.73;29.67;;;;;;;7.22;100.00;99931.31;4840826;29;20045;-80
2023/04/15 00:28:18;;;;;;;49.40;24.63;;;;;;;7.13;100.00;99928.88;4823206;29;20084;-80
2023/04/15 00:30:46;;;;;;;46.73;26.23;;;;;;;7.11;100.00;99931.53;4855148;29;20033;-80
2023/04/15 00:33:15;;;;;;;56.83;27.93;;;;;;;7.21;100.00;99929.59;4837538;29;20061;-80
2023/04/15 00:35:42;;;;;;;51.63;26.90;;;;;;;7.14;100.00;99928.84;4826534;29;20069;-81
2023/04/15 00:38:08;;;;;;;54.13;28.57;;;;;;;7.19;100.00;99934.88;4840536;29;20045;-80
2023/04/15 00:40:35;;;;;;;48.63;27.63;;;;;;;7.19;100.00;99932.25;4832664;29;20038;-80
2023/04/15 00:43:03;;;;;;;49.80;26.83;;;;;;;7.17;100.00;99936.69;4840397;29;20049;-80
2023/04/15 00:45:29;;;;;;;49.40;25.33;;;;;;;7.22;100.00;99931.31;4840006;29;20033;-80
2023/04/15 00:47:57;;;;;;;43.63;25.47;;;;;;;7.28;100.00;99933.84;4832513;29;20069;-80
2023/04/15 00:50:24;;;;;;;49.30;27.47;;;;;;;7.15;100.00;99922.72;4837051;29;20037;-80
2023/04/15 00:52:51;;;;;;;51.33;25.20;;;;;;;7.21;100.00;99932.22;4831311;29;20046;-80
2023/04/15 00:55:18;;;;;;;55.67;27.47;;;;;;;7.19;100.00;99919.13;4840057;29;20057;-80
2023/04/15 00:57:45;;;;;;;46.10;24.50;;;;;;;7.12;100.00;99925.38;4838275;29;20468;-81
2023/04/15 01:00:12;;;;;;;46.93;25.57;;;;;;;7.11;100.00;99923.63;4821122;29;20410;-80
2023/04/15 01:02:39;;;;;;;52.77;27.67;;;;;;;7.10;100.00;99924.53;4841873;29;20060;-80
2023/04/15 01:05:06;;;;;;;48.10;26.33;;;;;;;7.01;100.00;99920.31;4821324;29;20770;-80
2023/04/15 01:07:33;;;;;;;50.53;25.33;;;;;;;7.14;100.00;99909.56;4848181;29;20049;-80
2023/04/15 01:10:00;;;;;;;49.60;27.37;;;;;;;7.03;100.00;99917.66;4839199;29;20049;-81
2023/04/15 01:12:27;;;;;;;49.43;26.07;;;;;;;7.13;100.00;99915.72;4853093;29;20049;-80
2023/04/15 01:14:54;;;;;;;51.77;26.50;;;;;;;7.10;100.00;99911.41;4823670;29;20050;-80
2023/04/15 01:17:23;;;;;;;45.67;24.53;;;;;;;7.10;100.00;99911.41;4840203;29;20059;-80
2023/04/15 01:19:51;;;;;;;46.57;25.60;;;;;;;7.10;100.00;99908.78;4830587;29;20070;-81
2023/04/15 01:22:17;;;;;;;45.07;23.77;;;;;;;7.05;100.00;99910.63;4847870;29;20240;-81
2023/04/15 01:24:55;;;;;;;49.40;25.70;;;;;;;7.07;100.00;99910.63;4854257;29;20053;-81
2023/04/15 01:27:22;;;;;;;50.03;26.23;;;;;;;7.02;100.00;99913.31;4854846;29;20048;-82
2023/04/15 01:29:49;;;;;;;50.43;25.00;;;;;;;7.12;100.00;99906.97;4819034;29;20042;-81
2023/04/15 01:32:16;;;;;;;46.20;26.60;;;;;;;7.13;100.00;99913.97;4856198;29;20045;-81
2023/04/15 01:34:42;;;;;;;54.60;26.50;;;;;;;7.15;100.00;99904.31;4834278;29;20073;-80
2023/04/15 01:37:12;;;;;;;53.20;27.67;;;;;;;7.18;100.00;99901.63;4839959;29;20541;-81
2023/04/15 01:39:40;;;;;;;46.80;26.03;;;;;;;7.16;100.00;99908.69;4844044;29;20045;-81
2023/04/15 01:42:06;;;;;;;48.17;25.47;;;;;;;7.26;100.00;99902.34;4841590;29;20506;-81
2023/04/15 01:44:33;;;;;;;46.57;25.00;;;;;;;7.18;100.00;99904.25;4837945;29;20044;-80
2023/04/15 01:47:00;;;;;;;47.67;25.90;;;;;;;7.14;100.00;99904.31;4835713;29;20488;-80
2023/04/15 01:49:27;;;;;;;45.10;25.80;;;;;;;7.09;100.00;99896.53;4856795;29;20042;-80
2023/04/15 01:51:53;;;;;;;48.90;27.37;;;;;;;7.05;100.00;99906.22;4849567;29;20045;-80
2023/04/15 01:54:20;;;;;;;51.27;25.47;;;;;;;7.07;100.00;99903.59;4839248;29;20560;-81
2023/04/15 01:56:47;;;;;;;45.73;26.67;;;;;;;7.09;100.00;99899.19;4826013;29;20053;-81
2023/04/15 01:59:13;;;;;;;49.80;24.43;;;;;;;7.13;100.00;99898.22;4856176;29;20049;-81
2023/04/15 02:01:40;;;;;;;46.00;24.33;;;;;;;7.11;100.00;99902.63;4839934;29;20042;-81
2023/04/15 02:04:15;;;;;;;53.30;26.40;;;;;;;7.07;100.00;99905.34;4826110;29;20140;-81
2023/04/15 02:06:42;;;;;;;48.07;25.73;;;;;;;7.02;100.00;99908.91;4826630;29;20054;-81
2023/04/15 02:09:09;;;;;;;46.83;26.40;;;;;;;7.19;100.00;99905.13;4840645;29;20500;-80
2023/04/15 02:11:36;;;;;;;46.60;24.47;;;;;;;7.15;100.00;99906.09;4819536;29;20037;-81
2023/04/15 02:14:04;;;;;;;47.80;25.37;;;;;;;7.11;100.00;99905.25;4836885;29;20045;-81
2023/04/15 02:16:32;;;;;;;50.33;25.53;;;;;;;7.11;100.00;99900.00;4840475;29;20041;-80
2023/04/15 02:18:59;;;;;;;47.60;25.33;;;;;;;7.05;100.00;99892.22;4840041;29;20045;-80
2023/04/15 02:21:26;;;;;;;50.50;26.60;;;;;;;7.14;100.00;99899.94;4835022;29;20045;-81
2023/04/15 02:23:53;;;;;;;51.60;27.57;;;;;;;7.09;100.00;99895.69;4825537;29;20042;-80
2023/04/15 02:26:19;;;;;;;49.73;24.93;;;;;;;7.11;100.00;99894.75;4832977;29;20497;-81
2023/04/15 02:28:47;;;;;;;54.00;26.90;;;;;;;7.19;100.00;99898.09;4839605;29;20045;-79
2023/04/15 02:31:13;;;;;;;45.10;23.30;;;;;;;7.12;100.00;99893.84;4850486;29;20042;-80
2023/04/15 02:33:40;;;;;;;53.00;28.10;;;;;;;7.17;100.00;99897.28;4836529;29;20065;-81
2023/04/15 02:36:08;;;;;;;41.90;24.37;;;;;;;7.11;100.00;99893.88;4854321;29;20777;-80
2023/04/15 02:38:35;;;;;;;49.53;25.03;;;;;;;7.18;100.00;99899.00;4852338;29;20133;-80
2023/04/15 02:41:02;;;;;;;47.53;26.20;;;;;;;7.03;100.00;99899.28;4856509;29;20038;-79
2023/04/15 02:43:28;;;;;;;46.57;25.77;;;;;;;7.11;100.00;99897.38;4833316;29;20100;-80
2023/04/15 02:45:55;;;;;;;50.43;26.43;;;;;;;7.10;100.00;99907.91;4858514;29;20097;-80
2023/04/15 02:48:22;;;;;;;44.70;24.40;;;;;;;7.07;100.00;99903.59;4855485;29;20042;-80
2023/04/15 02:50:49;;;;;;;40.03;22.80;;;;;;;7.05;100.00;99900.97;4854729;29;20506;-80
2023/04/15 02:53:16;;;;;;;41.83;22.77;;;;;;;7.00;100.00;99899.34;4840233;29;20067;-79
2023/04/15 02:55:43;;;;;;;46.73;23.53;;;;;;;7.01;100.00;99903.69;4862436;29;20041;-80
2023/04/15 02:58:09;;;;;;;42.17;23.80;;;;;;;7.00;100.00;99899.34;4845215;29;20045;-80
2023/04/15 03:00:38;;;;;;;41.47;23.43;;;;;;;6.97;100.00;99904.63;4838777;29;20068;-80
2023/04/15 03:03:05;;;;;;;46.40;24.50;;;;;;;6.96;100.00;99901.13;4838064;29;20507;-80
2023/04/15 03:05:32;;;;;;;44.00;24.27;;;;;;;6.96;100.00;99905.53;4840094;29;20048;-80
2023/04/15 03:08:00;;;;;;;38.57;22.97;;;;;;;6.96;100.00;99909.03;4853866;29;20044;-80
2023/04/15 03:10:31;;;;;;;43.37;23.83;;;;;;;7.07;100.00;99910.63;4835234;29;20066;-79
2023/04/15 03:12:58;;;;;;;44.73;24.30;;;;;;;7.02;100.00;99910.69;4848409;29;21377;-80
2023/04/15 03:15:24;;;;;;;42.80;22.83;;;;;;;7.07;100.00;99902.72;4839830;29;20060;-78
2023/04/15 03:17:51;;;;;;;42.20;23.37;;;;;;;7.09;100.00;99909.69;4854385;29;20072;-79
2023/04/15 03:20:19;;;;;;;46.33;23.90;;;;;;;6.98;100.00;99901.13;4839003;29;20515;-79
2023/04/15 03:22:45;;;;;;;42.43;21.87;;;;;;;6.89;100.00;99917.03;4840671;29;20110;-79
2023/04/15 03:25:12;;;;;;;42.13;23.27;;;;;;;6.97;100.00;99915.13;4856012;29;20058;-79
2023/04/15 03:27:39;;;;;;;45.20;23.80;;;;;;;7.01;100.00;99912.44;4833775;29;20057;-79
2023/04/15 03:30:06;;;;;;;39.97;22.57;;;;;;;6.92;100.00;99914.38;4822431;29;20573;-79
2023/04/15 03:32:33;;;;;;;47.77;25.37;;;;;;;6.97;100.00;99921.25;4842507;29;20072;-79
2023/04/15 03:35:00;;;;;;;38.27;21.73;;;;;;;6.89;100.00;99924.91;4834972;29;20045;-79
2023/04/15 03:37:26;;;;;;;40.77;22.57;;;;;;;6.74;100.00;99921.66;4852895;29;20048;-79
2023/04/15 03:39:53;;;;;;;43.23;23.23;;;;;;;6.80;100.00;99910.19;4851879;29;20041;-79
2023/04/15 03:42:20;;;;;;;46.13;23.30;;;;;;;6.86;100.00;99907.47;4852947;29;20701;-79
2023/04/15 03:44:46;;;;;;;41.47;21.80;;;;;;;6.90;100.00;99916.16;4837086;29;20396;-79
2023/04/15 03:47:13;;;;;;;39.63;21.43;;;;;;;6.77;100.00;99916.34;4851756;29;20062;-79
2023/04/15 03:49:40;;;;;;;40.00;22.50;;;;;;;6.82;100.00;99921.53;4855608;29;20042;-80
2023/04/15 03:52:06;;;;;;;38.73;22.40;;;;;;;6.74;100.00;99915.56;4820029;29;20049;-80
2023/04/15 03:54:33;;;;;;;39.27;22.00;;;;;;;6.85;100.00;99918.84;4847217;29;20052;-81
2023/04/15 03:57:00;;;;;;;39.00;22.07;;;;;;;6.77;100.00;99923.38;4838414;29;20049;-79
2023/04/15 03:59:27;;;;;;;39.23;21.70;;;;;;;6.77;100.00;99924.22;4853004;29;20060;-79
2023/04/15 04:01:54;;;;;;;36.23;20.13;;;;;;;6.78;100.00;99918.09;4839260;29;20049;-78
2023/04/15 04:04:21;;;;;;;43.07;23.13;;;;;;;6.88;100.00;99920.56;4852840;29;20046;-79
2023/04/15 04:06:48;;;;;;;37.43;22.13;;;;;;;6.78;100.00;99923.34;4848000;29;20500;-79
2023/04/15 04:09:15;;;;;;;35.80;21.07;;;;;;;6.83;100.00;99923.28;4852740;29;20077;-79
2023/04/15 04:11:41;;;;;;;35.47;20.97;;;;;;;6.77;100.00;99926.00;4823834;29;20083;-78
2023/04/15 04:14:08;;;;;;;33.50;21.17;;;;;;;6.76;100.00;99929.50;4842166;29;20085;-79
2023/04/15 04:16:35;;;;;;;37.17;21.30;;;;;;;6.68;100.00;99937.50;4847470;29;20073;-79
2023/04/15 04:19:01;;;;;;;40.83;23.43;;;;;;;6.91;100.00;99931.03;4853703;29;20141;-79
2023/04/15 04:21:29;;;;;;;34.27;21.67;;;;;;;6.76;100.00;99926.88;4850668;29;20065;-79
2023/04/15 04:23:56;;;;;;;33.77;19.90;;;;;;;6.62;100.00;99932.34;4834720;29;20050;-79
2023/04/15 04:26:23;;;;;;;36.97;19.90;;;;;;;6.65;100.00;99934.94;4836486;29;20057;-79
2023/04/15 04:28:49;;;;;;;37.40;21.67;;;;;;;6.68;100.00;99936.66;4839245;29;20053;-79
2023/04/15 04:31:16;;;;;;;36.47;21.30;;;;;;;6.62;100.00;99940.22;4854485;29;20403;-79
2023/04/15 04:33:43;;;;;;;32.30;20.40;;;;;;;6.67;100.00;99934.91;4823816;29;20049;-79
2023/04/15 04:36:09;;;;;;;37.43;21.57;;;;;;;6.71;100.00;99942.69;4851801;29;20045;-80
2023/04/15 04:38:36;;;;;;;35.63;21.87;;;;;;;6.62;100.00;99941.97;4833142;29;20046;-80
2023/04/15 04:41:03;;;;;;;34.70;20.23;;;;;;;6.74;100.00;99940.03;4839681;29;20496;-80
2023/04/15 04:43:29;;;;;;;36.50;21.00;;;;;;;6.66;100.00;99943.69;4855300;29;20037;-80
2023/04/15 04:45:56;;;;;;;33.47;19.43;;;;;;;6.64;100.00;99943.72;4839161;29;20135;-80
2023/04/15 04:48:23;;;;;;;34.73;19.73;;;;;;;6.70;100.00;99942.72;4853629;29;20042;-81
2023/04/15 04:50:50;;;;;;;34.63;20.50;;;;;;;6.65;100.00;99947.22;4833653;29;20049;-80
2023/04/15 04:53:17;;;;;;;32.30;19.67;;;;;;;6.71;100.00;99949.72;4851286;29;20053;-80
2023/04/15 04:55:43;;;;;;;38.13;20.53;;;;;;;6.86;100.00;99951.22;4853855;29;20050;-80
2023/04/15 04:58:10;;;;;;;35.67;20.43;;;;;;;6.93;100.00;99950.22;4833672;29;20663;-80
2023/04/15 05:00:39;;;;;;;33.23;20.00;;;;;;;6.90;100.00;99953.78;4822746;29;20775;-81
2023/04/15 05:03:08;;;;;;;30.03;18.37;;;;;;;6.89;100.00;99948.53;4855805;29;20708;-80
2023/04/15 05:05:38;;;;;;;30.90;19.43;;;;;;;6.96;100.00;99958.03;4838913;29;20124;-82
2023/04/15 05:08:05;;;;;;;31.47;19.20;;;;;;;6.94;100.00;99958.06;4855413;29;20393;-80
2023/04/15 05:10:31;;;;;;;31.60;19.43;;;;;;;6.99;100.00;99955.38;4838484;29;20405;-81
2023/04/15 05:12:58;;;;;;;34.10;20.40;;;;;;;7.08;100.00;99963.09;4861877;29;20044;-81
2023/04/15 05:15:25;;;;;;;28.00;17.70;;;;;;;7.10;100.00;99963.06;4837085;29;20050;-81
2023/04/15 05:17:56;;;;;;;28.67;18.23;;;;;;;7.07;100.00;99960.50;4840497;29;20137;-82
2023/04/15 05:20:28;;;;;;;28.93;18.80;;;;;;;7.05;100.00;99968.38;4857562;29;20050;-81
2023/04/15 05:22:54;;;;;;;29.43;19.37;;;;;;;7.17;100.00;99969.97;4830141;29;20050;-82
2023/04/15 05:25:21;;;;;;;32.03;19.50;;;;;;;7.15;100.00;99967.38;4838027;29;20121;-81
2023/04/15 05:27:48;;;;;;;30.93;19.30;;;;;;;7.24;100.00;99969.81;4854794;29;20037;-81
2023/04/15 05:30:15;;;;;;;29.67;18.60;;;;;;;7.29;100.00;99972.34;4843374;29;20504;-81
2023/04/15 05:32:42;;;;;;;29.20;18.20;;;;;;;7.37;100.00;99974.84;4832249;29;20657;-82
2023/04/15 05:35:09;;;;;;;27.43;18.03;;;;;;;7.41;100.00;99979.16;4854052;29;20052;-82
2023/04/15 05:37:36;;;;;;;32.30;19.07;;;;;;;7.41;100.00;99976.53;4834586;29;20098;-82
2023/04/15 05:40:03;;;;;;;27.67;17.77;;;;;;;7.45;100.00;99978.19;4854040;29;20049;-82
2023/04/15 05:42:30;;;;;;;24.47;16.97;;;;;;;7.56;100.00;99977.09;4840366;29;20045;-83
2023/04/15 05:44:57;;;;;;;26.20;16.80;;;;;;;7.52;100.00;99977.19;4825148;29;20092;-82
2023/04/15 05:47:23;;;;;;;27.80;17.97;;;;;;;7.61;100.00;99971.75;4841776;29;20049;-82
2023/04/15 05:49:50;;;;;;;24.17;16.13;;;;;;;7.73;100.00;99982.03;4841891;29;20071;-81
2023/04/15 05:52:17;;;;;;;27.60;17.67;;;;;;;7.73;100.00;99979.38;4839033;29;20084;-82
2023/04/15 05:54:44;;;;;;;26.60;17.30;;;;;;;7.75;100.00;99974.13;4839901;29;20041;-82
2023/04/15 05:57:10;;;;;;;26.27;16.90;;;;;;;7.88;100.00;99979.09;4837175;29;20493;-81
2023/04/15 05:59:37;;;;;;;29.20;18.07;;;;;;;7.95;100.00;99979.84;4840240;29;20061;-81
2023/04/15 06:02:05;;;;;;;25.27;16.30;;;;;;;7.89;100.00;99978.19;4832508;29;20040;-81
2023/04/15 06:04:31;;;;;;;25.87;16.33;;;;;;;8.00;100.00;99974.50;4835796;29;20093;-81
2023/04/15 06:06:59;;;;;;;23.50;16.00;;;;;;;8.11;100.00;99980.38;4855884;29;20044;-82
2023/04/15 06:09:26;;;;;;;24.20;15.93;;;;;;;8.25;100.00;99980.09;4823084;29;20042;-82
2023/04/15 06:11:52;;;;;;;23.17;15.43;;;;;;;8.36;100.00;99971.09;4838457;29;20042;-81
2023/04/15 06:14:19;;;;;;;23.23;14.83;;;;;;;8.20;100.00;99985.44;4848485;29;20045;-81
2023/04/15 06:16:46;;;;;;;22.43;14.87;;;;;;;8.40;100.00;99978.00;4846730;29;20508;-83
2023/04/15 06:19:13;;;;;;;25.10;16.00;;;;;;;8.58;100.00;99983.78;4824140;29;20056;-82
2023/04/15 06:21:40;;;;;;;23.42;15.02;;;;;;;8.63;100.00;99992.41;4844255;29;20467;-82
2023/04/15 06:24:07;;;;;;;21.57;14.90;;;;;;;8.75;100.00;99984.25;4857590;29;20380;-81
2023/04/15 06:26:34;;;;;;;18.88;13.27;;;;;;;8.89;100.00;99981.25;4829697;29;20050;-81
2023/04/15 06:29:01;;;;;;;18.70;14.43;;;;;;;9.25;100.00;99987.41;4839608;29;20041;-82
2023/04/15 06:31:28;;;;;;;18.15;12.35;;;;;;;9.67;100.00;99987.13;4825252;29;20042;-81
2023/04/15 06:33:54;;;;;;;17.08;11.88;;;;;;;9.80;100.00;99983.25;4840167;29;20109;-81
2023/04/15 06:36:21;;;;;;;14.73;11.68;;;;;;;9.88;100.00;99986.53;4841090;29;20052;-81
2023/04/15 06:38:48;;;;;;;16.70;11.73;;;;;;;10.06;100.00;99990.44;4841186;29;20042;-81
2023/04/15 06:41:15;;;;;;;16.65;12.63;;;;;;;9.98;100.00;99989.78;4830793;29;20132;-81
2023/04/15 06:43:42;;;;;;;15.93;11.40;;;;;;;10.11;100.00;99997.31;4823984;29;20053;-80
2023/04/15 06:46:09;;;;;;;17.05;11.45;;;;;;;10.34;100.00;99998.41;4839545;29;20499;-80
2023/04/15 06:48:36;;;;;;;16.58;12.20;;;;;;;10.24;100.00;99994.34;4840012;29;20097;-80
2023/04/15 06:51:03;;;;;;;16.90;11.68;;;;;;;10.09;100.00;99991.22;4856683;29;20041;-80
2023/04/15 06:53:29;;;;;;;15.80;11.60;;;;;;;10.14;100.00;100005.13;4838104;29;20061;-79
2023/04/15 06:55:56;;;;;;;16.17;11.13;;;;;;;10.09;100.00;100001.78;4831992;29;20128;-79
2023/04/15 06:58:23;;;;;;;14.35;10.75;;;;;;;10.14;100.00;100002.50;4835873;29;20563;-79
2023/04/15 07:00:49;;;;;;;16.77;12.63;;;;;;;10.10;100.00;100005.28;4830341;29;20046;-82
2023/04/15 07:03:16;;;;;;;92.85;64.53;;;;;;;10.05;100.00;100013.31;4835992;29;20128;-80
2023/04/15 07:05:43;;;;;;;19.40;13.30;;;;;;;10.12;100.00;100004.31;4855725;29;20642;-82
2023/04/15 07:08:10;;;;;;;16.95;12.88;;;;;;;10.14;100.00;100006.91;4836457;29;20041;-80
2023/04/15 07:10:37;;;;;;;18.35;13.60;;;;;;;10.22;100.00;100007.59;4854123;29;20052;-81
2023/04/15 07:13:04;;;;;;;14.43;11.57;;;;;;;10.15;100.00;100006.84;4839325;29;20045;-80
2023/04/15 07:15:31;;;;;;;16.70;11.93;;;;;;;10.08;100.00;100015.84;4853315;29;20045;-81
2023/04/15 07:17:57;;;;;;;16.63;12.60;;;;;;;10.06;100.00;100017.69;4851472;29;20041;-82
2023/04/15 07:20:24;;;;;;;16.65;12.40;;;;;;;10.11;100.00;100021.06;4836927;29;20115;-80
2023/04/15 07:22:51;;;;;;;15.57;11.77;;;;;;;10.05;100.00;100013.31;4835063;29;20084;-82
2023/04/15 07:25:18;;;;;;;18.33;12.25;;;;;;;10.06;100.00;100022.09;4840826;29;20077;-81
2023/04/15 07:27:45;;;;;;;15.90;12.15;;;;;;;10.07;100.00;100018.53;4844640;29;20135;-81
2023/04/15 07:30:12;;;;;;;17.40;12.88;;;;;;;10.21;100.00;100018.16;4845279;29;20041;-81
2023/04/15 07:32:39;;;;;;;16.05;12.82;;;;;;;10.34;100.00;100016.91;4842747;29;20048;-81
2023/04/15 07:35:07;;;;;;;16.80;12.23;;;;;;;10.34;100.00;100020.44;4824175;29;20068;-81
2023/04/15 07:37:34;;;;;;;16.00;12.55;;;;;;;10.25;100.00;100022.47;4851700;29;20074;-82
2023/04/15 07:40:01;;;;;;;16.08;12.05;;;;;;;10.24;100.00;100018.09;4839016;29;20045;-81
2023/04/15 07:42:28;;;;;;;17.63;13.13;;;;;;;10.38;100.00;100021.19;4840396;29;20049;-81
2023/04/15 07:44:55;;;;;;;20.35;14.40;;;;;;;10.34;100.00;100028.38;4839310;29;20045;-81
2023/04/15 07:47:22;;;;;;;18.73;13.50;;;;;;;10.45;100.00;100029.81;4837603;29;20092;-83
2023/04/15 07:49:50;;;;;;;13.88;11.13;;;;;;;10.30;100.00;100025.84;4836416;29;20049;-81
2023/04/15 07:52:17;;;;;;;17.27;12.85;;;;;;;10.51;100.00;100025.22;4839926;29;20047;-82
2023/04/15 07:54:44;;;;;;;16.77;13.00;;;;;;;10.32;100.00;100034.56;4822872;29;20528;-80
2023/04/15 07:57:11;;;;;;;18.98;13.68;;;;;;;10.30;100.00;100029.34;4838352;29;20064;-80
2023/04/15 07:59:37;;;;;;;16.08;12.75;;;;;;;10.49;100.00;100034.94;4824414;29;20049;-81
2023/04/15 08:02:04;;;;;;;15.57;12.95;;;;;;;10.43;100.00;100025.44;4822034;29;20042;-79
2023/04/15 08:04:31;;;;;;;17.10;12.85;;;;;;;10.56;100.00;100040.91;4838838;29;20098;-79
2023/04/15 08:06:58;;;;;;;17.73;12.95;;;;;;;10.59;100.00;100044.31;4847463;29;20574;-81
2023/04/15 08:09:25;;;;;;;16.80;12.80;;;;;;;10.66;100.00;100045.84;4839349;29;20060;-80
2023/04/15 08:11:52;;;;;;;16.30;13.57;;;;;;;10.69;100.00;100053.69;4842008;29;20420;-81
2023/04/15 08:14:19;;;;;;;17.27;12.88;;;;;;;10.54;100.00;100048.88;4857739;29;20597;-82
2023/04/15 08:19:19;;;;;;;16.38;12.90;;;;;;;10.46;100.00;100047.38;4848222;29;20645;-82
2023/04/15 08:21:46;;;;;;;17.48;13.18;;;;;;;10.51;100.00;100042.81;4825577;29;20133;-81
2023/04/15 08:24:13;;;;;;;19.70;14.77;;;;;;;10.67;100.00;100047.56;4847968;29;20077;-82
2023/04/15 08:26:40;;;;;;;16.30;13.45;;;;;;;10.68;100.00;100057.25;4820066;29;20051;-81
2023/04/15 08:29:08;;;;;;;15.52;13.23;;;;;;;10.71;100.00;100057.16;4794214;29;20057;-81
2023/04/15 08:31:34;;;;;;;16.27;12.60;;;;;;;10.68;100.00;100059.91;4820039;29;20134;-83
2023/04/15 08:34:01;;;;;;;19.55;13.82;;;;;;;10.81;100.00;100057.72;4800720;29;20081;-82
2023/04/15 08:36:28;;;;;;;19.92;13.75;;;;;;;10.90;100.00;100054.81;4823495;29;20481;-83
2023/04/15 08:38:55;;;;;;;17.75;14.25;;;;;;;10.87;100.00;100057.56;4810615;29;20062;-83
2023/04/15 08:41:24;;;;;;;19.50;14.82;;;;;;;10.83;100.00;100060.31;4825290;29;20427;-82
2023/04/15 08:44:00;;;;;;;19.58;13.88;;;;;;;10.80;100.00;100060.44;4810048;29;20083;-83
2023/04/15 08:46:27;;;;;;;17.60;14.15;;;;;;;10.85;100.00;100055.88;4811866;29;20046;-82
2023/04/15 08:48:56;;;;;;;20.27;15.20;;;;;;;10.89;100.00;100066.28;4823925;29;20448;-82
2023/04/15 08:51:23;;;;;;;18.50;14.52;;;;;;;10.84;100.00;100059.41;4812197;29;20143;-85
2023/04/15 08:53:52;;;;;;;20.60;15.02;;;;;;;10.88;100.00;100061.06;4810160;29;20107;-83
2023/04/15 08:56:23;;;;;;;19.30;15.07;;;;;;;10.84;100.00;100064.69;4812028;29;20046;-82
2023/04/15 08:58:51;;;;;;;20.38;14.95;;;;;;;10.77;100.00;100063.19;4825200;29;20081;-82
2023/04/15 09:01:17;;;;;;;20.92;14.57;;;;;;;10.79;100.00;100064.84;4817499;29;20571;-83
2023/04/15 09:03:47;;;;;;;21.65;16.52;;;;;;;10.81;100.00;100068.31;4826034;29;20038;-82
2023/04/15 09:06:16;;;;;;;19.58;14.95;;;;;;;10.70;100.00;100073.06;4828541;29;20048;-82
2023/04/15 09:08:43;;;;;;;18.08;14.50;;;;;;;10.77;100.00;100074.63;4825037;29;20078;-84
2023/04/15 09:11:11;;;;;;;19.88;14.43;;;;;;;10.85;100.00;100072.59;4832777;29;20070;-83
2023/04/15 09:13:37;;;;;;;20.02;15.27;;;;;;;10.79;100.00;100077.19;4831542;29;20070;-84
2023/04/15 09:16:05;;;;;;;19.35;15.18;;;;;;;10.92;100.00;100078.53;4815875;29;20054;-85
2023/04/15 09:18:33;;;;;;;19.67;14.80;;;;;;;10.92;100.00;100070.59;4798995;29;20047;-82
2023/04/15 09:21:10;;;;;;;16.80;14.20;;;;;;;10.82;100.00;100077.09;4819020;29;20182;-85
2023/04/15 09:23:55;;;;;;;30.70;19.05;;;;;;;10.81;100.00;100083.28;4796818;29;20059;-82
2023/04/15 09:26:36;;;;;;;20.45;14.88;;;;;;;10.96;100.00;100081.03;4813396;29;20471;-85
2023/04/15 09:29:08;;;;;;;17.85;14.25;;;;;;;11.09;100.00;100085.94;4795183;29;20092;-82
2023/04/15 09:31:36;;;;;;;17.10;13.30;;;;;;;11.08;100.00;100085.06;4811430;29;20095;-83
2023/04/15 09:34:03;;;;;;;18.23;13.02;;;;;;;11.18;100.00;100091.81;4812291;29;20053;-82
2023/04/15 09:36:40;;;;;;;18.80;14.52;;;;;;;11.13;100.00;100095.50;4804828;29;20110;-84
2023/04/15 09:39:07;;;;;;;17.75;13.63;;;;;;;11.00;100.00;100101.16;4825748;29;20062;-84
2023/04/15 09:41:33;;;;;;;16.27;13.82;;;;;;;11.02;100.00;100101.16;4813630;29;20666;-83
2023/04/15 09:44:00;;;;;;;16.45;12.38;;;;;;;11.00;100.00;100105.59;4828693;29;20042;-84
2023/04/15 09:46:44;;;;;;;17.50;13.45;;;;;;;11.02;100.00;100095.88;4807803;29;20497;-80
2023/04/15 09:49:11;;;;;;;15.38;12.88;;;;;;;11.04;100.00;100098.44;4822473;29;20484;-82
2023/04/15 09:51:38;;;;;;;16.88;12.75;;;;;;;11.00;100.00;100093.25;4788172;29;20074;-79
2023/04/15 09:54:06;;;;;;;17.20;12.77;;;;;;;11.09;100.00;100105.31;4816704;29;20050;-82
2023/04/15 09:56:40;;;;;;;17.17;14.20;;;;;;;11.13;100.00;100109.59;4805673;29;20110;-80
2023/04/15 09:59:07;;;;;;;;;;;;;;;11.17;100.00;100105.06;4815608;29;20043;-81
2023/04/15 10:01:34;;;;;;;18.25;12.90;;;;;;;11.12;100.00;100113.16;4804981;29;19981;-80
2023/04/15 10:04:05;;;;;;;17.98;13.77;;;;;;;11.04;100.00;100114.31;4821188;29;20069;-82
2023/04/15 10:06:32;;;;;;;16.50;12.32;;;;;;;10.98;100.00;100110.94;4806856;29;20520;-79
2023/04/15 10:08:59;;;;;;;15.85;11.80;;;;;;;11.05;100.00;100122.19;4805887;29;20507;-80
2023/04/15 10:11:30;;;;;;;20.02;13.85;;;;;;;11.05;100.00;100116.03;4804506;29;20095;-82
2023/04/15 10:13:57;;;;;;;17.83;13.27;;;;;;;11.02;100.00;100117.00;4806978;29;20088;-81
2023/04/15 10:16:27;;;;;;;14.77;12.55;;;;;;;10.94;100.00;100129.59;4818960;29;20043;-82
2023/04/15 10:18:54;;;;;;;19.48;15.23;;;;;;;10.95;100.00;100126.91;4807177;29;20057;-82
2023/04/15 10:21:22;;;;;;;18.85;14.00;;;;;;;10.93;100.00;100122.53;4787390;29;20047;-80
2023/04/15 10:23:49;;;;;;;16.83;12.75;;;;;;;10.96;100.00;100122.47;4807139;29;20051;-80
2023/04/15 10:26:16;;;;;;;17.95;13.45;;;;;;;10.86;100.00;100128.97;4790242;29;20059;-81
2023/04/15 10:28:45;;;;;;;20.17;14.30;;;;;;;10.89;100.00;100131.50;4815768;29;20046;-80
2023/04/15 10:31:13;;;;;;;20.45;15.13;;;;;;;10.78;100.00;100128.31;4789465;29;21257;-83
2023/04/15 10:33:41;;;;;;;19.23;13.63;;;;;;;10.83;100.00;100123.75;4806175;29;20058;-81
2023/04/15 10:36:09;;;;;;;20.13;15.05;;;;;;;10.84;100.00;100125.47;4790885;29;20057;-80
2023/04/15 10:38:44;;;;;;;17.67;13.80;;;;;;;10.76;100.00;100124.84;4805518;29;20058;-81
2023/04/15 10:41:22;;;;;;;19.42;14.40;;;;;;;10.90;100.00;100134.09;4794374;29;20512;-82
2023/04/15 10:43:56;;;;;;;19.10;14.65;;;;;;;10.87;100.00;100138.63;4801545;29;20522;-82
2023/04/15 10:46:37;;;;;;;17.75;13.80;;;;;;;10.91;100.00;100130.53;4805877;29;20047;-82
2023/04/15 10:49:15;;;;;;;18.73;14.02;;;;;;;10.89;100.00;100131.50;4807938;29;20051;-82
2023/04/15 10:51:50;;;;;;;17.38;13.63;;;;;;;10.75;100.00;100138.97;4803654;29;20046;-84
2023/04/15 10:54:23;;;;;;;18.90;14.05;;;;;;;10.92;100.00;100137.53;4805086;29;20050;-85
2023/04/15 10:56:51;;;;;;;19.80;12.75;;;;;;;10.82;100.00;100136.09;4811770;29;20077;-81
2023/04/15 10:59:17;;;;;;;17.75;13.88;;;;;;;10.94;100.00;100142.81;4798492;29;20050;-81
2023/04/15 11:01:58;;;;;;;16.08;12.85;;;;;;;10.67;100.00;100136.53;4802257;29;20054;-83
2023/04/15 11:04:54;;;;;;;20.05;13.57;;;;;;;10.90;100.00;100143.78;4786310;29;20072;-80
2023/04/15 11:07:48;;;;;;;17.17;13.77;;;;;;;10.81;100.00;100139.66;4783540;29;20043;-79
2023/04/15 11:10:24;;;;;;;17.23;12.68;;;;;;;10.91;100.00;100138.44;4817437;29;20048;-82
2023/04/15 11:13:11;;;;;;;17.27;12.93;;;;;;;10.88;100.00;100140.34;4799756;29;20050;-81
2023/04/15 11:15:45;;;;;;;17.35;13.23;;;;;;;10.77;100.00;100139.81;4795236;29;20074;-81
2023/04/15 11:18:21;;;;;;;17.52;13.35;;;;;;;10.73;100.00;100152.22;4817644;29;20143;-82